sensor_id;sensor_type;location;lat;lon;timestamp;P1;durP1;ratioP1;P2;durP2;ratioP2
22622;SDS011;11478;51.094;7.030;2022-10-16T00:01:21;13.25;;;5.93;;
22622;SDS011;11478;51.094;7.030;2022-10-16T00:03:49;17.90;;;7.15;;
22622;SDS011;11478;51.094;7.030;2022-10-16T00:06:16;12.90;;;6.45;;
22622;SDS011;11478;51.094;7.030;2022-10-16T00:11:16;11.48;;;6.40;;
22622;SDS011;11478;51.094;7.030;2022-10-16T00:16:16;11.07;;;6.03;;
22622;SDS011;11478;51.094;7.030;2022-10-16T00:18:44;13.13;;;5.55;;
22622;SDS011;11478;51.094;7.030;2022-10-16T00:21:15;16.27;;;6.47;;
22622;SDS011;11478;51.094;7.030;2022-10-16T00:23:44;20.35;;;6.32;;
22622;SDS011;11478;51.094;7.030;2022-10-16T00:26:12;12.35;;;6.07;;
22622;SDS011;11478;51.094;7.030;2022-10-16T00:28:45;18.02;;;5.65;;
22622;SDS011;11478;51.094;7.030;2022-10-16T00:31:11;13.73;;;6.10;;
22622;SDS011;11478;51.094;7.030;2022-10-16T00:33:59;11.13;;;5.35;;
22622;SDS011;11478;51.094;7.030;2022-10-16T00:36:27;13.68;;;5.32;;
22622;SDS011;11478;51.094;7.030;2022-10-16T00:39:03;10.60;;;5.00;;
22622;SDS011;11478;51.094;7.030;2022-10-16T00:41:32;13.35;;;5.60;;
22622;SDS011;11478;51.094;7.030;2022-10-16T00:43:59;9.88;;;4.78;;
22622;SDS011;11478;51.094;7.030;2022-10-16T00:51:37;13.57;;;4.93;;
22622;SDS011;11478;51.094;7.030;2022-10-16T00:54:16;9.60;;;4.60;;
22622;SDS011;11478;51.094;7.030;2022-10-16T00:56:46;8.25;;;4.97;;
22622;SDS011;11478;51.094;7.030;2022-10-16T01:02:32;15.32;;;5.25;;
22622;SDS011;11478;51.094;7.030;2022-10-16T01:05:13;18.85;;;5.05;;
22622;SDS011;11478;51.094;7.030;2022-10-16T01:07:51;11.05;;;4.85;;
22622;SDS011;11478;51.094;7.030;2022-10-16T01:13:33;13.30;;;5.30;;
22622;SDS011;11478;51.094;7.030;2022-10-16T01:21:59;8.52;;;4.88;;
22622;SDS011;11478;51.094;7.030;2022-10-16T01:24:39;20.42;;;5.25;;
22622;SDS011;11478;51.094;7.030;2022-10-16T01:27:27;16.88;;;5.78;;
22622;SDS011;11478;51.094;7.030;2022-10-16T01:30:02;13.27;;;5.32;;
22622;SDS011;11478;51.094;7.030;2022-10-16T01:32:44;21.60;;;6.07;;
22622;SDS011;11478;51.094;7.030;2022-10-16T01:37:46;14.65;;;5.38;;
22622;SDS011;11478;51.094;7.030;2022-10-16T01:40:29;19.23;;;5.63;;
22622;SDS011;11478;51.094;7.030;2022-10-16T01:43:12;15.13;;;5.78;;
22622;SDS011;11478;51.094;7.030;2022-10-16T01:45:44;15.00;;;5.72;;
22622;SDS011;11478;51.094;7.030;2022-10-16T01:48:12;10.88;;;5.90;;
22622;SDS011;11478;51.094;7.030;2022-10-16T01:50:42;16.83;;;6.03;;
22622;SDS011;11478;51.094;7.030;2022-10-16T01:53:10;14.15;;;6.18;;
22622;SDS011;11478;51.094;7.030;2022-10-16T01:55:40;12.77;;;6.05;;
22622;SDS011;11478;51.094;7.030;2022-10-16T01:58:10;17.58;;;6.55;;
22622;SDS011;11478;51.094;7.030;2022-10-16T02:00:41;16.05;;;6.20;;
22622;SDS011;11478;51.094;7.030;2022-10-16T02:03:12;16.23;;;5.90;;
22622;SDS011;11478;51.094;7.030;2022-10-16T02:08:18;20.15;;;6.07;;
22622;SDS011;11478;51.094;7.030;2022-10-16T02:10:49;11.77;;;6.45;;
22622;SDS011;11478;51.094;7.030;2022-10-16T02:13:30;10.90;;;6.43;;
22622;SDS011;11478;51.094;7.030;2022-10-16T02:16:10;13.95;;;6.50;;
22622;SDS011;11478;51.094;7.030;2022-10-16T02:18:42;8.13;;;5.72;;
22622;SDS011;11478;51.094;7.030;2022-10-16T02:30:11;16.95;;;6.22;;
22622;SDS011;11478;51.094;7.030;2022-10-16T02:32:42;16.20;;;6.22;;
22622;SDS011;11478;51.094;7.030;2022-10-16T02:35:12;16.23;;;6.43;;
22622;SDS011;11478;51.094;7.030;2022-10-16T02:37:43;19.63;;;6.05;;
22622;SDS011;11478;51.094;7.030;2022-10-16T02:40:10;18.02;;;5.93;;
22622;SDS011;11478;51.094;7.030;2022-10-16T02:42:38;16.17;;;5.45;;
22622;SDS011;11478;51.094;7.030;2022-10-16T02:45:05;17.70;;;6.35;;
22622;SDS011;11478;51.094;7.030;2022-10-16T02:47:40;18.40;;;6.38;;
22622;SDS011;11478;51.094;7.030;2022-10-16T02:50:06;16.90;;;5.63;;
22622;SDS011;11478;51.094;7.030;2022-10-16T02:52:35;13.15;;;5.30;;
22622;SDS011;11478;51.094;7.030;2022-10-16T02:55:03;10.70;;;6.03;;
22622;SDS011;11478;51.094;7.030;2022-10-16T02:57:32;15.40;;;6.32;;
22622;SDS011;11478;51.094;7.030;2022-10-16T03:00:03;18.77;;;5.53;;
22622;SDS011;11478;51.094;7.030;2022-10-16T03:02:40;22.58;;;6.43;;
22622;SDS011;11478;51.094;7.030;2022-10-16T03:05:08;10.13;;;5.70;;
22622;SDS011;11478;51.094;7.030;2022-10-16T03:07:34;14.90;;;5.90;;
22622;SDS011;11478;51.094;7.030;2022-10-16T03:10:06;15.80;;;5.97;;
22622;SDS011;11478;51.094;7.030;2022-10-16T03:12:33;9.77;;;5.50;;
22622;SDS011;11478;51.094;7.030;2022-10-16T03:14:59;12.13;;;5.32;;
22622;SDS011;11478;51.094;7.030;2022-10-16T03:17:24;15.90;;;6.13;;
22622;SDS011;11478;51.094;7.030;2022-10-16T03:19:51;17.45;;;5.45;;
22622;SDS011;11478;51.094;7.030;2022-10-16T03:22:28;17.83;;;5.18;;
22622;SDS011;11478;51.094;7.030;2022-10-16T03:24:54;16.55;;;5.55;;
22622;SDS011;11478;51.094;7.030;2022-10-16T03:27:21;14.13;;;4.82;;
22622;SDS011;11478;51.094;7.030;2022-10-16T03:29:47;16.67;;;4.72;;
22622;SDS011;11478;51.094;7.030;2022-10-16T03:32:15;14.57;;;4.80;;
22622;SDS011;11478;51.094;7.030;2022-10-16T03:34:41;15.27;;;5.20;;
22622;SDS011;11478;51.094;7.030;2022-10-16T03:37:07;11.73;;;5.25;;
22622;SDS011;11478;51.094;7.030;2022-10-16T03:39:35;20.40;;;4.47;;
22622;SDS011;11478;51.094;7.030;2022-10-16T03:42:02;17.35;;;5.47;;
22622;SDS011;11478;51.094;7.030;2022-10-16T03:47:06;12.20;;;4.93;;
22622;SDS011;11478;51.094;7.030;2022-10-16T03:49:40;15.07;;;4.30;;
22622;SDS011;11478;51.094;7.030;2022-10-16T03:52:12;7.05;;;4.10;;
22622;SDS011;11478;51.094;7.030;2022-10-16T03:54:38;14.52;;;4.35;;
22622;SDS011;11478;51.094;7.030;2022-10-16T03:57:20;13.85;;;4.50;;
22622;SDS011;11478;51.094;7.030;2022-10-16T03:59:46;7.63;;;4.05;;
22622;SDS011;11478;51.094;7.030;2022-10-16T04:05:03;14.98;;;4.38;;
22622;SDS011;11478;51.094;7.030;2022-10-16T04:07:35;18.48;;;4.32;;
22622;SDS011;11478;51.094;7.030;2022-10-16T04:10:08;12.40;;;4.38;;
22622;SDS011;11478;51.094;7.030;2022-10-16T04:12:35;8.93;;;3.75;;
22622;SDS011;11478;51.094;7.030;2022-10-16T04:15:01;14.18;;;4.40;;
22622;SDS011;11478;51.094;7.030;2022-10-16T04:17:29;9.52;;;4.18;;
22622;SDS011;11478;51.094;7.030;2022-10-16T04:19:57;11.77;;;4.25;;
22622;SDS011;11478;51.094;7.030;2022-10-16T04:22:23;6.93;;;3.63;;
22622;SDS011;11478;51.094;7.030;2022-10-16T04:24:49;10.73;;;4.22;;
22622;SDS011;11478;51.094;7.030;2022-10-16T04:27:16;9.30;;;4.25;;
22622;SDS011;11478;51.094;7.030;2022-10-16T04:29:43;12.75;;;4.07;;
22622;SDS011;11478;51.094;7.030;2022-10-16T04:32:14;15.65;;;4.53;;
22622;SDS011;11478;51.094;7.030;2022-10-16T04:34:51;14.35;;;4.03;;
22622;SDS011;11478;51.094;7.030;2022-10-16T04:37:17;10.90;;;4.65;;
22622;SDS011;11478;51.094;7.030;2022-10-16T04:39:47;9.90;;;4.40;;
22622;SDS011;11478;51.094;7.030;2022-10-16T04:42:15;15.50;;;4.18;;
22622;SDS011;11478;51.094;7.030;2022-10-16T04:44:44;16.42;;;4.22;;
22622;SDS011;11478;51.094;7.030;2022-10-16T04:47:10;13.43;;;4.15;;
22622;SDS011;11478;51.094;7.030;2022-10-16T04:49:38;11.35;;;4.07;;
22622;SDS011;11478;51.094;7.030;2022-10-16T04:52:05;11.63;;;3.92;;
22622;SDS011;11478;51.094;7.030;2022-10-16T04:54:33;13.98;;;4.55;;
22622;SDS011;11478;51.094;7.030;2022-10-16T04:56:59;16.70;;;3.67;;
22622;SDS011;11478;51.094;7.030;2022-10-16T04:59:35;13.98;;;4.53;;
22622;SDS011;11478;51.094;7.030;2022-10-16T05:05:10;8.77;;;3.50;;
22622;SDS011;11478;51.094;7.030;2022-10-16T05:07:57;4.70;;;3.45;;
22622;SDS011;11478;51.094;7.030;2022-10-16T05:10:29;7.65;;;3.42;;
22622;SDS011;11478;51.094;7.030;2022-10-16T05:12:56;6.72;;;3.75;;
22622;SDS011;11478;51.094;7.030;2022-10-16T05:15:26;13.02;;;4.20;;
22622;SDS011;11478;51.094;7.030;2022-10-16T05:17:59;12.73;;;3.85;;
22622;SDS011;11478;51.094;7.030;2022-10-16T05:20:26;11.25;;;3.90;;
22622;SDS011;11478;51.094;7.030;2022-10-16T05:22:55;7.65;;;3.42;;
22622;SDS011;11478;51.094;7.030;2022-10-16T05:25:25;8.07;;;3.33;;
22622;SDS011;11478;51.094;7.030;2022-10-16T05:28:01;10.75;;;3.45;;
22622;SDS011;11478;51.094;7.030;2022-10-16T05:30:34;8.80;;;3.70;;
22622;SDS011;11478;51.094;7.030;2022-10-16T05:33:12;9.93;;;3.72;;
22622;SDS011;11478;51.094;7.030;2022-10-16T05:35:43;9.38;;;3.33;;
22622;SDS011;11478;51.094;7.030;2022-10-16T05:38:10;9.18;;;3.60;;
22622;SDS011;11478;51.094;7.030;2022-10-16T05:40:39;8.32;;;3.20;;
22622;SDS011;11478;51.094;7.030;2022-10-16T05:43:07;14.77;;;3.50;;
22622;SDS011;11478;51.094;7.030;2022-10-16T05:45:40;7.60;;;3.30;;
22622;SDS011;11478;51.094;7.030;2022-10-16T05:48:06;8.38;;;3.38;;
22622;SDS011;11478;51.094;7.030;2022-10-16T05:50:32;6.88;;;3.50;;
22622;SDS011;11478;51.094;7.030;2022-10-16T05:52:57;7.60;;;3.17;;
22622;SDS011;11478;51.094;7.030;2022-10-16T05:55:28;7.90;;;3.20;;
22622;SDS011;11478;51.094;7.030;2022-10-16T05:58:09;11.98;;;3.65;;
22622;SDS011;11478;51.094;7.030;2022-10-16T06:00:55;10.60;;;3.75;;
22622;SDS011;11478;51.094;7.030;2022-10-16T06:03:36;9.00;;;3.80;;
22622;SDS011;11478;51.094;7.030;2022-10-16T06:06:17;11.30;;;3.78;;
22622;SDS011;11478;51.094;7.030;2022-10-16T06:08:48;7.35;;;3.70;;
22622;SDS011;11478;51.094;7.030;2022-10-16T06:11:17;8.48;;;3.72;;
22622;SDS011;11478;51.094;7.030;2022-10-16T06:13:44;10.02;;;3.80;;
22622;SDS011;11478;51.094;7.030;2022-10-16T06:16:14;7.53;;;3.83;;
22622;SDS011;11478;51.094;7.030;2022-10-16T06:18:40;11.43;;;3.88;;
22622;SDS011;11478;51.094;7.030;2022-10-16T06:21:11;7.72;;;3.50;;
22622;SDS011;11478;51.094;7.030;2022-10-16T06:23:39;11.10;;;3.72;;
22622;SDS011;11478;51.094;7.030;2022-10-16T06:26:13;14.60;;;3.80;;
22622;SDS011;11478;51.094;7.030;2022-10-16T06:28:44;8.77;;;3.70;;
22622;SDS011;11478;51.094;7.030;2022-10-16T06:31:24;13.48;;;4.00;;
22622;SDS011;11478;51.094;7.030;2022-10-16T06:33:55;9.50;;;4.20;;
22622;SDS011;11478;51.094;7.030;2022-10-16T06:36:24;8.68;;;3.40;;
22622;SDS011;11478;51.094;7.030;2022-10-16T06:39:08;6.13;;;3.63;;
22622;SDS011;11478;51.094;7.030;2022-10-16T06:42:23;9.25;;;3.80;;
22622;SDS011;11478;51.094;7.030;2022-10-16T06:44:56;9.63;;;4.15;;
22622;SDS011;11478;51.094;7.030;2022-10-16T06:47:23;13.13;;;3.85;;
22622;SDS011;11478;51.094;7.030;2022-10-16T06:49:49;5.10;;;3.70;;
22622;SDS011;11478;51.094;7.030;2022-10-16T06:52:18;11.27;;;4.53;;
22622;SDS011;11478;51.094;7.030;2022-10-16T06:54:44;7.70;;;4.45;;
22622;SDS011;11478;51.094;7.030;2022-10-16T06:57:15;8.18;;;4.38;;
22622;SDS011;11478;51.094;7.030;2022-10-16T06:59:46;9.15;;;4.45;;
22622;SDS011;11478;51.094;7.030;2022-10-16T07:02:19;7.00;;;5.00;;
22622;SDS011;11478;51.094;7.030;2022-10-16T07:04:57;15.15;;;4.78;;
22622;SDS011;11478;51.094;7.030;2022-10-16T07:07:42;7.85;;;4.78;;
22622;SDS011;11478;51.094;7.030;2022-10-16T07:10:10;12.40;;;5.57;;
22622;SDS011;11478;51.094;7.030;2022-10-16T07:12:44;8.00;;;5.03;;
22622;SDS011;11478;51.094;7.030;2022-10-16T07:18:01;12.57;;;5.53;;
22622;SDS011;11478;51.094;7.030;2022-10-16T07:20:37;14.55;;;4.45;;
22622;SDS011;11478;51.094;7.030;2022-10-16T07:27:04;12.27;;;5.40;;
22622;SDS011;11478;51.094;7.030;2022-10-16T07:29:41;15.25;;;6.05;;
22622;SDS011;11478;51.094;7.030;2022-10-16T07:32:12;9.82;;;4.70;;
22622;SDS011;11478;51.094;7.030;2022-10-16T07:34:57;7.22;;;5.07;;
22622;SDS011;11478;51.094;7.030;2022-10-16T07:37:52;8.63;;;5.00;;
22622;SDS011;11478;51.094;7.030;2022-10-16T07:40:55;8.48;;;4.85;;
22622;SDS011;11478;51.094;7.030;2022-10-16T07:43:29;9.77;;;4.70;;
22622;SDS011;11478;51.094;7.030;2022-10-16T07:46:05;8.43;;;4.28;;
22622;SDS011;11478;51.094;7.030;2022-10-16T07:48:44;11.07;;;4.75;;
22622;SDS011;11478;51.094;7.030;2022-10-16T07:51:19;4.97;;;4.03;;
22622;SDS011;11478;51.094;7.030;2022-10-16T07:53:49;11.30;;;4.30;;
22622;SDS011;11478;51.094;7.030;2022-10-16T07:56:59;4.40;;;3.60;;
22622;SDS011;11478;51.094;7.030;2022-10-16T07:59:40;8.55;;;4.30;;
22622;SDS011;11478;51.094;7.030;2022-10-16T08:02:26;9.38;;;3.70;;
22622;SDS011;11478;51.094;7.030;2022-10-16T08:10:47;6.30;;;4.13;;
22622;SDS011;11478;51.094;7.030;2022-10-16T08:13:31;4.60;;;3.78;;
22622;SDS011;11478;51.094;7.030;2022-10-16T08:16:02;6.75;;;3.67;;
22622;SDS011;11478;51.094;7.030;2022-10-16T08:18:45;8.52;;;3.85;;
22622;SDS011;11478;51.094;7.030;2022-10-16T08:21:15;5.43;;;3.67;;
22622;SDS011;11478;51.094;7.030;2022-10-16T08:23:52;6.15;;;3.53;;
22622;SDS011;11478;51.094;7.030;2022-10-16T08:26:23;4.80;;;3.50;;
22622;SDS011;11478;51.094;7.030;2022-10-16T08:28:50;4.53;;;3.70;;
22622;SDS011;11478;51.094;7.030;2022-10-16T08:31:17;7.50;;;3.53;;
22622;SDS011;11478;51.094;7.030;2022-10-16T08:33:43;6.00;;;3.80;;
22622;SDS011;11478;51.094;7.030;2022-10-16T08:36:14;7.40;;;3.97;;
22622;SDS011;11478;51.094;7.030;2022-10-16T08:38:43;4.30;;;3.70;;
22622;SDS011;11478;51.094;7.030;2022-10-16T08:52:53;11.45;;;3.03;;
22622;SDS011;11478;51.094;7.030;2022-10-16T08:58:38;4.40;;;2.20;;
22622;SDS011;11478;51.094;7.030;2022-10-16T09:12:12;3.38;;;1.52;;
22622;SDS011;11478;51.094;7.030;2022-10-16T09:21:10;4.38;;;1.38;;
22622;SDS011;11478;51.094;7.030;2022-10-16T09:23:37;2.80;;;1.17;;
22622;SDS011;11478;51.094;7.030;2022-10-16T09:26:04;3.13;;;1.42;;
22622;SDS011;11478;51.094;7.030;2022-10-16T09:28:31;3.50;;;1.50;;
22622;SDS011;11478;51.094;7.030;2022-10-16T09:30:58;4.28;;;1.40;;
22622;SDS011;11478;51.094;7.030;2022-10-16T09:33:27;1.90;;;1.20;;
22622;SDS011;11478;51.094;7.030;2022-10-16T09:36:00;7.05;;;1.30;;
22622;SDS011;11478;51.094;7.030;2022-10-16T09:38:29;4.30;;;1.40;;
22622;SDS011;11478;51.094;7.030;2022-10-16T09:40:58;5.10;;;1.20;;
22622;SDS011;11478;51.094;7.030;2022-10-16T09:46:24;4.57;;;1.20;;
22622;SDS011;11478;51.094;7.030;2022-10-16T09:49:19;3.25;;;1.10;;
22622;SDS011;11478;51.094;7.030;2022-10-16T09:52:05;2.42;;;1.10;;
22622;SDS011;11478;51.094;7.030;2022-10-16T09:54:39;4.32;;;1.15;;
22622;SDS011;11478;51.094;7.030;2022-10-16T09:57:17;3.08;;;1.10;;
22622;SDS011;11478;51.094;7.030;2022-10-16T09:59:48;3.60;;;1.20;;
22622;SDS011;11478;51.094;7.030;2022-10-16T10:02:16;2.60;;;1.00;;
22622;SDS011;11478;51.094;7.030;2022-10-16T10:04:51;2.00;;;0.93;;
22622;SDS011;11478;51.094;7.030;2022-10-16T10:07:30;2.85;;;1.20;;
22622;SDS011;11478;51.094;7.030;2022-10-16T10:10:16;2.67;;;1.20;;
22622;SDS011;11478;51.094;7.030;2022-10-16T10:12:53;2.03;;;1.00;;
22622;SDS011;11478;51.094;7.030;2022-10-16T10:15:23;4.60;;;1.00;;
22622;SDS011;11478;51.094;7.030;2022-10-16T10:17:52;2.00;;;1.00;;
22622;SDS011;11478;51.094;7.030;2022-10-16T10:20:31;3.03;;;1.00;;
22622;SDS011;11478;51.094;7.030;2022-10-16T10:23:25;1.63;;;0.93;;
22622;SDS011;11478;51.094;7.030;2022-10-16T10:31:06;2.00;;;1.00;;
22622;SDS011;11478;51.094;7.030;2022-10-16T10:33:47;2.85;;;0.90;;
22622;SDS011;11478;51.094;7.030;2022-10-16T10:36:36;3.75;;;1.00;;
22622;SDS011;11478;51.094;7.030;2022-10-16T10:42:07;2.80;;;0.90;;
22622;SDS011;11478;51.094;7.030;2022-10-16T10:45:04;4.03;;;0.88;;
22622;SDS011;11478;51.094;7.030;2022-10-16T10:51:01;2.10;;;1.00;;
22622;SDS011;11478;51.094;7.030;2022-10-16T11:02:10;4.43;;;1.13;;
22622;SDS011;11478;51.094;7.030;2022-10-16T11:07:34;3.35;;;0.93;;
22622;SDS011;11478;51.094;7.030;2022-10-16T11:10:14;3.65;;;1.13;;
22622;SDS011;11478;51.094;7.030;2022-10-16T11:12:51;4.70;;;0.93;;
22622;SDS011;11478;51.094;7.030;2022-10-16T11:15:33;3.53;;;1.02;;
22622;SDS011;11478;51.094;7.030;2022-10-16T11:18:45;2.75;;;0.80;;
22622;SDS011;11478;51.094;7.030;2022-10-16T11:21:19;3.95;;;1.02;;
22622;SDS011;11478;51.094;7.030;2022-10-16T11:24:01;3.03;;;1.08;;
22622;SDS011;11478;51.094;7.030;2022-10-16T11:26:39;6.57;;;0.95;;
22622;SDS011;11478;51.094;7.030;2022-10-16T11:29:12;3.92;;;0.80;;
22622;SDS011;11478;51.094;7.030;2022-10-16T11:31:48;4.55;;;0.85;;
22622;SDS011;11478;51.094;7.030;2022-10-16T11:34:32;3.38;;;0.95;;
22622;SDS011;11478;51.094;7.030;2022-10-16T11:37:18;4.30;;;1.00;;
22622;SDS011;11478;51.094;7.030;2022-10-16T11:39:49;2.55;;;0.77;;
22622;SDS011;11478;51.094;7.030;2022-10-16T11:50:59;2.58;;;0.80;;
22622;SDS011;11478;51.094;7.030;2022-10-16T11:53:59;4.57;;;1.20;;
22622;SDS011;11478;51.094;7.030;2022-10-16T11:56:36;4.45;;;0.85;;
22622;SDS011;11478;51.094;7.030;2022-10-16T11:59:13;3.08;;;0.93;;
22622;SDS011;11478;51.094;7.030;2022-10-16T12:01:53;2.72;;;0.95;;
22622;SDS011;11478;51.094;7.030;2022-10-16T12:04:48;1.70;;;0.70;;
22622;SDS011;11478;51.094;7.030;2022-10-16T12:07:24;2.60;;;0.75;;
22622;SDS011;11478;51.094;7.030;2022-10-16T12:10:09;4.15;;;0.80;;
22622;SDS011;11478;51.094;7.030;2022-10-16T12:13:46;5.25;;;0.82;;
22622;SDS011;11478;51.094;7.030;2022-10-16T12:18:30;3.85;;;0.77;;
22622;SDS011;11478;51.094;7.030;2022-10-16T12:20:56;3.03;;;0.65;;
22622;SDS011;11478;51.094;7.030;2022-10-16T12:23:26;3.88;;;1.02;;
22622;SDS011;11478;51.094;7.030;2022-10-16T12:25:55;1.90;;;0.75;;
22622;SDS011;11478;51.094;7.030;2022-10-16T12:28:26;2.67;;;1.00;;
22622;SDS011;11478;51.094;7.030;2022-10-16T12:31:01;2.60;;;0.90;;
22622;SDS011;11478;51.094;7.030;2022-10-16T12:36:15;2.63;;;0.93;;
22622;SDS011;11478;51.094;7.030;2022-10-16T12:41:48;2.38;;;0.98;;
22622;SDS011;11478;51.094;7.030;2022-10-16T12:44:25;3.53;;;0.70;;
22622;SDS011;11478;51.094;7.030;2022-10-16T12:46:51;2.63;;;0.65;;
22622;SDS011;11478;51.094;7.030;2022-10-16T12:51:58;1.83;;;0.70;;
22622;SDS011;11478;51.094;7.030;2022-10-16T13:00:13;6.72;;;1.42;;
22622;SDS011;11478;51.094;7.030;2022-10-16T13:08:29;3.25;;;1.08;;
22622;SDS011;11478;51.094;7.030;2022-10-16T13:11:03;1.70;;;0.90;;
22622;SDS011;11478;51.094;7.030;2022-10-16T13:30:25;2.63;;;0.80;;
22622;SDS011;11478;51.094;7.030;2022-10-16T13:36:01;2.72;;;0.70;;
22622;SDS011;11478;51.094;7.030;2022-10-16T13:38:30;9.65;;;1.80;;
22622;SDS011;11478;51.094;7.030;2022-10-16T13:46:20;2.28;;;0.88;;
22622;SDS011;11478;51.094;7.030;2022-10-16T13:49:05;6.15;;;2.03;;
22622;SDS011;11478;51.094;7.030;2022-10-16T13:51:36;2.58;;;0.90;;
22622;SDS011;11478;51.094;7.030;2022-10-16T13:54:03;2.00;;;0.70;;
22622;SDS011;11478;51.094;7.030;2022-10-16T13:56:30;4.32;;;0.77;;
22622;SDS011;11478;51.094;7.030;2022-10-16T13:59:05;3.08;;;0.82;;
22622;SDS011;11478;51.094;7.030;2022-10-16T14:04:59;2.80;;;0.70;;
22622;SDS011;11478;51.094;7.030;2022-10-16T14:07:34;2.67;;;0.77;;
22622;SDS011;11478;51.094;7.030;2022-10-16T14:10:03;3.92;;;0.80;;
22622;SDS011;11478;51.094;7.030;2022-10-16T14:12:33;3.00;;;0.90;;
22622;SDS011;11478;51.094;7.030;2022-10-16T14:15:04;13.85;;;3.80;;
22622;SDS011;11478;51.094;7.030;2022-10-16T14:17:33;4.43;;;1.15;;
22622;SDS011;11478;51.094;7.030;2022-10-16T14:20:02;5.70;;;0.85;;
22622;SDS011;11478;51.094;7.030;2022-10-16T14:22:40;3.33;;;0.68;;
22622;SDS011;11478;51.094;7.030;2022-10-16T14:41:20;8.77;;;1.00;;
22622;SDS011;11478;51.094;7.030;2022-10-16T14:43:50;9.95;;;0.80;;
22622;SDS011;11478;51.094;7.030;2022-10-16T14:46:23;5.75;;;0.77;;
22622;SDS011;11478;51.094;7.030;2022-10-16T14:49:16;7.25;;;0.90;;
22622;SDS011;11478;51.094;7.030;2022-10-16T14:51:54;7.90;;;1.30;;
22622;SDS011;11478;51.094;7.030;2022-10-16T14:54:22;3.30;;;1.00;;
22622;SDS011;11478;51.094;7.030;2022-10-16T14:56:52;3.88;;;0.90;;
22622;SDS011;11478;51.094;7.030;2022-10-16T14:59:39;5.28;;;1.02;;
22622;SDS011;11478;51.094;7.030;2022-10-16T15:04:56;3.00;;;0.95;;
22622;SDS011;11478;51.094;7.030;2022-10-16T15:07:23;4.75;;;1.00;;
22622;SDS011;11478;51.094;7.030;2022-10-16T15:09:50;4.25;;;0.90;;
22622;SDS011;11478;51.094;7.030;2022-10-16T15:12:16;7.65;;;0.93;;
22622;SDS011;11478;51.094;7.030;2022-10-16T15:17:18;12.37;;;1.30;;
22622;SDS011;11478;51.094;7.030;2022-10-16T15:19:48;12.30;;;1.30;;
22622;SDS011;11478;51.094;7.030;2022-10-16T15:22:24;6.75;;;1.13;;
22622;SDS011;11478;51.094;7.030;2022-10-16T15:31:45;11.00;;;1.25;;
22622;SDS011;11478;51.094;7.030;2022-10-16T15:34:15;8.02;;;1.17;;
22622;SDS011;11478;51.094;7.030;2022-10-16T15:36:48;11.93;;;1.20;;
22622;SDS011;11478;51.094;7.030;2022-10-16T15:39:15;7.78;;;1.42;;
22622;SDS011;11478;51.094;7.030;2022-10-16T15:41:47;7.05;;;0.90;;
22622;SDS011;11478;51.094;7.030;2022-10-16T15:44:40;9.20;;;1.30;;
22622;SDS011;11478;51.094;7.030;2022-10-16T15:47:06;6.13;;;1.08;;
22622;SDS011;11478;51.094;7.030;2022-10-16T15:49:35;10.55;;;1.42;;
22622;SDS011;11478;51.094;7.030;2022-10-16T15:52:10;11.52;;;1.20;;
22622;SDS011;11478;51.094;7.030;2022-10-16T15:54:44;13.85;;;1.23;;
22622;SDS011;11478;51.094;7.030;2022-10-16T15:57:23;11.90;;;1.40;;
22622;SDS011;11478;51.094;7.030;2022-10-16T16:00:03;16.70;;;1.20;;
22622;SDS011;11478;51.094;7.030;2022-10-16T16:02:48;12.80;;;1.38;;
22622;SDS011;11478;51.094;7.030;2022-10-16T16:05:39;10.85;;;1.50;;
22622;SDS011;11478;51.094;7.030;2022-10-16T16:08:30;12.70;;;1.65;;
22622;SDS011;11478;51.094;7.030;2022-10-16T16:11:18;15.88;;;1.85;;
22622;SDS011;11478;51.094;7.030;2022-10-16T16:13:48;12.65;;;1.20;;
22622;SDS011;11478;51.094;7.030;2022-10-16T16:16:20;9.23;;;1.50;;
22622;SDS011;11478;51.094;7.030;2022-10-16T16:18:58;15.13;;;1.55;;
22622;SDS011;11478;51.094;7.030;2022-10-16T16:21:37;8.10;;;1.33;;
22622;SDS011;11478;51.094;7.030;2022-10-16T16:24:22;13.55;;;1.50;;
22622;SDS011;11478;51.094;7.030;2022-10-16T16:27:26;9.60;;;1.20;;
22622;SDS011;11478;51.094;7.030;2022-10-16T16:29:59;15.75;;;1.20;;
22622;SDS011;11478;51.094;7.030;2022-10-16T16:32:28;11.15;;;1.40;;
22622;SDS011;11478;51.094;7.030;2022-10-16T16:35:04;13.65;;;1.60;;
22622;SDS011;11478;51.094;7.030;2022-10-16T16:37:30;17.95;;;1.55;;
22622;SDS011;11478;51.094;7.030;2022-10-16T16:39:59;13.10;;;1.77;;
22622;SDS011;11478;51.094;7.030;2022-10-16T16:42:27;11.27;;;1.67;;
22622;SDS011;11478;51.094;7.030;2022-10-16T16:44:53;11.35;;;1.75;;
22622;SDS011;11478;51.094;7.030;2022-10-16T16:47:22;17.77;;;1.52;;
22622;SDS011;11478;51.094;7.030;2022-10-16T16:49:55;16.27;;;1.63;;
22622;SDS011;11478;51.094;7.030;2022-10-16T16:52:24;13.00;;;1.75;;
22622;SDS011;11478;51.094;7.030;2022-10-16T16:54:54;13.02;;;1.50;;
22622;SDS011;11478;51.094;7.030;2022-10-16T16:57:20;15.20;;;1.80;;
22622;SDS011;11478;51.094;7.030;2022-10-16T16:59:49;9.10;;;1.50;;
22622;SDS011;11478;51.094;7.030;2022-10-16T17:02:18;13.93;;;1.85;;
22622;SDS011;11478;51.094;7.030;2022-10-16T17:04:51;12.40;;;1.60;;
22622;SDS011;11478;51.094;7.030;2022-10-16T17:07:26;10.95;;;1.70;;
22622;SDS011;11478;51.094;7.030;2022-10-16T17:10:07;11.00;;;1.50;;
22622;SDS011;11478;51.094;7.030;2022-10-16T17:12:33;11.13;;;1.50;;
22622;SDS011;11478;51.094;7.030;2022-10-16T17:14:59;8.57;;;1.42;;
22622;SDS011;11478;51.094;7.030;2022-10-16T17:17:25;11.40;;;1.77;;
22622;SDS011;11478;51.094;7.030;2022-10-16T17:19:53;6.60;;;1.30;;
22622;SDS011;11478;51.094;7.030;2022-10-16T17:22:20;12.32;;;1.50;;
22622;SDS011;11478;51.094;7.030;2022-10-16T17:24:49;16.60;;;1.85;;
22622;SDS011;11478;51.094;7.030;2022-10-16T17:29:49;9.23;;;1.75;;
22622;SDS011;11478;51.094;7.030;2022-10-16T17:32:16;7.38;;;1.80;;
22622;SDS011;11478;51.094;7.030;2022-10-16T17:34:46;10.80;;;1.85;;
22622;SDS011;11478;51.094;7.030;2022-10-16T17:37:20;7.30;;;1.85;;
22622;SDS011;11478;51.094;7.030;2022-10-16T17:39:49;13.35;;;1.95;;
22622;SDS011;11478;51.094;7.030;2022-10-16T17:42:18;7.80;;;1.42;;
22622;SDS011;11478;51.094;7.030;2022-10-16T17:44:44;14.15;;;1.77;;
22622;SDS011;11478;51.094;7.030;2022-10-16T17:47:13;14.63;;;1.75;;
22622;SDS011;11478;51.094;7.030;2022-10-16T17:49:43;10.23;;;2.25;;
22622;SDS011;11478;51.094;7.030;2022-10-16T17:52:14;10.52;;;1.67;;
22622;SDS011;11478;51.094;7.030;2022-10-16T17:54:41;6.70;;;1.52;;
22622;SDS011;11478;51.094;7.030;2022-10-16T17:57:08;16.42;;;2.00;;
22622;SDS011;11478;51.094;7.030;2022-10-16T17:59:47;11.25;;;2.17;;
22622;SDS011;11478;51.094;7.030;2022-10-16T18:02:19;6.32;;;1.60;;
22622;SDS011;11478;51.094;7.030;2022-10-16T18:04:45;11.45;;;2.08;;
22622;SDS011;11478;51.094;7.030;2022-10-16T18:07:15;12.45;;;2.20;;
22622;SDS011;11478;51.094;7.030;2022-10-16T18:09:41;11.00;;;1.90;;
22622;SDS011;11478;51.094;7.030;2022-10-16T18:12:07;18.92;;;2.42;;
22622;SDS011;11478;51.094;7.030;2022-10-16T18:14:38;9.15;;;2.13;;
22622;SDS011;11478;51.094;7.030;2022-10-16T18:17:08;13.10;;;2.70;;
22622;SDS011;11478;51.094;7.030;2022-10-16T18:19:38;15.57;;;5.47;;
22622;SDS011;11478;51.094;7.030;2022-10-16T18:22:05;7.53;;;2.47;;
22622;SDS011;11478;51.094;7.030;2022-10-16T18:24:31;9.98;;;2.42;;
22622;SDS011;11478;51.094;7.030;2022-10-16T18:27:05;5.03;;;2.25;;
22622;SDS011;11478;51.094;7.030;2022-10-16T18:29:34;7.32;;;2.00;;
22622;SDS011;11478;51.094;7.030;2022-10-16T18:32:03;13.93;;;2.42;;
22622;SDS011;11478;51.094;7.030;2022-10-16T18:34:29;8.43;;;1.98;;
22622;SDS011;11478;51.094;7.030;2022-10-16T18:37:25;11.55;;;2.30;;
22622;SDS011;11478;51.094;7.030;2022-10-16T18:40:02;8.02;;;2.05;;
22622;SDS011;11478;51.094;7.030;2022-10-16T18:42:29;12.93;;;2.67;;